createdAt,value
2019-03-27T00:00:42.734Z,14.96
2019-03-27T00:05:51.004Z,12.61
2019-03-27T00:10:59.334Z,14.20
2019-03-27T00:16:07.782Z,15.41
2019-03-27T00:21:16.111Z,13.27
2019-03-27T00:26:24.665Z,15.64
2019-03-27T00:31:33.100Z,15.28
2019-03-27T00:36:41.353Z,14.85
2019-03-27T00:41:49.494Z,14.96
2019-03-27T00:46:58.070Z,13.45
2019-03-27T00:52:06.461Z,14.88
2019-03-27T00:57:14.792Z,14.89
2019-03-27T01:02:23.267Z,12.38
2019-03-27T01:07:31.681Z,14.35
2019-03-27T01:12:40.041Z,17.02
2019-03-27T01:17:48.422Z,14.51
2019-03-27T01:22:56.729Z,16.70
2019-03-27T01:28:05.377Z,16.39
2019-03-27T01:33:13.641Z,16.95
2019-03-27T01:38:22.228Z,12.87
2019-03-27T01:43:30.374Z,16.43
2019-03-27T01:48:39.231Z,16.37
2019-03-27T01:53:47.770Z,14.12
2019-03-27T01:58:56.034Z,14.62
2019-03-27T02:04:04.364Z,17.41
2019-03-27T02:09:12.825Z,17.67
2019-03-27T02:14:21.428Z,17.22
2019-03-27T02:19:29.934Z,14.22
2019-03-27T02:24:38.237Z,16.13
2019-03-27T02:29:46.765Z,16.18
2019-03-27T02:34:55.055Z,17.14
2019-03-27T02:40:03.839Z,15.38
2019-03-27T02:45:12.173Z,19.16
2019-03-27T02:50:20.621Z,13.40
2019-03-27T02:55:29.565Z,19.21
2019-03-27T03:00:37.821Z,16.56
2019-03-27T03:05:46.026Z,17.15
2019-03-27T03:10:54.720Z,16.77
2019-03-27T03:16:03.027Z,19.67
2019-03-27T03:21:11.381Z,18.20
2019-03-27T03:26:20.090Z,18.02
2019-03-27T03:31:28.566Z,17.20
2019-03-27T03:36:36.943Z,20.02
2019-03-27T03:41:45.706Z,19.85
2019-03-27T03:47:00.019Z,18.19
2019-03-27T03:52:02.154Z,20.09
2019-03-27T03:57:10.410Z,18.95
2019-03-27T04:02:18.910Z,19.64
2019-03-27T04:07:27.111Z,21.29
2019-03-27T04:12:35.561Z,21.29
2019-03-27T04:17:43.890Z,23.05
2019-03-27T04:22:52.393Z,23.58
2019-03-27T04:28:00.749Z,19.43
2019-03-27T04:33:09.261Z,22.26
2019-03-27T04:38:17.615Z,22.56
2019-03-27T04:43:26.014Z,22.30
2019-03-27T04:48:34.489Z,26.77
2019-03-27T04:53:42.925Z,24.51
2019-03-27T04:58:51.249Z,24.45
2019-03-27T05:03:59.723Z,26.18
2019-03-27T05:09:07.957Z,23.39
2019-03-27T05:14:16.346Z,21.73
2019-03-27T05:19:24.640Z,24.83
2019-03-27T05:24:33.681Z,22.63
2019-03-27T05:29:42.056Z,25.63
2019-03-27T05:34:51.195Z,25.16
2019-03-27T05:39:59.421Z,24.35
2019-03-27T05:45:08.308Z,24.80
2019-03-27T05:50:16.920Z,23.94
2019-03-27T06:00:33.423Z,25.02
2019-03-27T06:05:34.047Z,22.98
2019-03-27T06:10:42.791Z,26.79
2019-03-27T06:15:52.241Z,26.68
2019-03-27T06:21:00.438Z,24.34
2019-03-27T06:26:09.748Z,25.02
2019-03-27T06:31:26.702Z,21.74
2019-03-27T06:36:28.492Z,20.62
2019-03-27T06:41:37.046Z,23.32
2019-03-27T06:46:44.185Z,22.28
2019-03-27T06:51:52.136Z,20.45
2019-03-27T06:57:03.883Z,22.01
2019-03-27T07:02:02.689Z,20.85
2019-03-27T07:07:12.385Z,22.13
2019-03-27T07:12:21.633Z,19.21
2019-03-27T07:17:29.931Z,18.44
2019-03-27T07:22:38.622Z,17.28
2019-03-27T07:27:48.111Z,18.90
2019-03-27T07:32:57.922Z,16.19
2019-03-27T07:38:00.424Z,13.74
2019-03-27T07:42:58.776Z,17.02
2019-03-27T07:48:07.738Z,14.64
2019-03-27T07:53:08.182Z,13.26
2019-03-27T07:58:15.651Z,13.20
2019-03-27T08:03:24.695Z,16.62
2019-03-27T08:08:34.193Z,17.23
2019-03-27T08:13:42.921Z,13.02
2019-03-27T08:18:51.806Z,14.02
2019-03-27T08:23:59.388Z,12.89
2019-03-27T08:29:00.950Z,14.64
2019-03-27T08:34:01.422Z,12.49
2019-03-27T08:39:09.832Z,12.83
2019-03-27T08:44:19.009Z,9.24
2019-03-27T08:49:27.520Z,10.41
2019-03-27T08:54:36.186Z,12.38
2019-03-27T08:59:37.574Z,10.99
2019-03-27T09:04:44.980Z,11.48
2019-03-27T09:09:53.572Z,8.99
2019-03-27T09:15:02.042Z,9.95
2019-03-27T09:20:11.067Z,9.67
2019-03-27T09:25:20.212Z,9.66
2019-03-27T09:30:32.537Z,8.24
2019-03-27T09:35:31.923Z,6.03
2019-03-27T09:40:40.763Z,7.10
2019-03-27T09:45:49.046Z,7.18
2019-03-27T09:50:57.781Z,6.88
2019-03-27T09:56:18.510Z,7.27
2019-03-27T10:01:17.583Z,6.18
2019-03-27T10:06:19.007Z,5.52
2019-03-27T10:11:37.323Z,6.77
2019-03-27T10:16:37.558Z,8.62
2019-03-27T10:21:48.347Z,6.78
2019-03-27T10:26:47.470Z,6.86
2019-03-27T10:31:55.963Z,8.20
2019-03-27T10:37:04.333Z,6.06
2019-03-27T10:42:13.614Z,6.11
2019-03-27T10:47:16.477Z,5.51
2019-03-27T10:52:17.584Z,6.25
2019-03-27T10:57:15.875Z,6.51
2019-03-27T11:02:24.779Z,6.77
2019-03-27T11:07:25.376Z,7.29
2019-03-27T11:12:33.916Z,6.84
2019-03-27T11:22:52.788Z,5.22
2019-03-27T11:28:08.943Z,6.82
2019-03-27T11:33:37.839Z,5.70
2019-03-27T11:38:15.134Z,4.93
2019-03-27T11:43:21.582Z,7.34
2019-03-27T11:48:29.913Z,6.35
2019-03-27T11:53:38.583Z,8.51
2019-03-27T11:58:46.960Z,8.98
2019-03-27T12:03:55.446Z,7.76
2019-03-27T12:09:03.741Z,7.45
2019-03-27T12:14:12.502Z,7.54
2019-03-27T12:19:20.495Z,7.16
2019-03-27T12:24:29.273Z,7.85
2019-03-27T12:29:37.890Z,4.58
2019-03-27T12:34:46.502Z,6.96
2019-03-27T12:39:54.767Z,8.00
2019-03-27T12:45:03.618Z,6.82
2019-03-27T12:50:11.929Z,5.79
2019-03-27T12:55:20.434Z,5.84
2019-03-27T13:00:29.075Z,7.21
2019-03-27T13:05:37.626Z,8.41
2019-03-27T13:10:46.160Z,7.03
2019-03-27T13:15:55.016Z,7.42
2019-03-27T13:21:03.206Z,7.94
2019-03-27T13:26:11.480Z,8.54
2019-03-27T13:31:19.769Z,6.63
2019-03-27T13:36:28.529Z,7.67
2019-03-27T13:41:36.890Z,8.03
2019-03-27T13:46:45.324Z,7.12
2019-03-27T13:51:53.785Z,7.46
2019-03-27T13:57:02.709Z,5.59
2019-03-27T14:02:11.293Z,5.80
2019-03-27T14:07:19.798Z,4.23
2019-03-27T14:12:28.221Z,4.02
2019-03-27T14:17:36.676Z,4.28
2019-03-27T14:22:44.980Z,4.13
2019-03-27T14:27:53.374Z,3.58
2019-03-27T14:33:01.729Z,3.30
2019-03-27T14:38:10.110Z,3.80
2019-03-27T14:43:18.317Z,3.98
2019-03-27T14:48:26.829Z,4.48
2019-03-27T14:53:35.354Z,4.04
2019-03-27T14:58:43.611Z,3.90
2019-03-27T15:03:52.418Z,4.55
2019-03-27T15:09:00.725Z,4.96
2019-03-27T15:14:09.154Z,5.04
2019-03-27T15:19:17.534Z,5.28
2019-03-27T15:24:25.815Z,5.24
2019-03-27T15:29:34.670Z,4.61
2019-03-27T15:34:43.619Z,5.41
2019-03-27T15:39:52.921Z,6.05
2019-03-27T15:45:01.433Z,5.14
2019-03-27T15:50:10.504Z,5.52
2019-03-27T15:55:18.929Z,5.99
2019-03-27T16:00:27.490Z,6.47
2019-03-27T16:05:36.070Z,7.27
2019-03-27T16:10:44.759Z,7.58
2019-03-27T16:15:53.094Z,8.19
2019-03-27T16:21:01.622Z,9.07
2019-03-27T16:26:10.074Z,10.61
2019-03-27T16:31:18.605Z,10.89
2019-03-27T16:36:26.950Z,13.00
2019-03-27T16:41:35.371Z,11.76
2019-03-27T16:46:44.415Z,10.67
2019-03-27T16:51:56.268Z,12.49
2019-03-27T16:57:01.537Z,12.32
2019-03-27T17:02:10.274Z,13.87
2019-03-27T17:07:18.839Z,13.39
2019-03-27T17:12:27.213Z,13.23
2019-03-27T17:17:35.884Z,14.99
2019-03-27T17:22:44.461Z,17.12
2019-03-27T17:27:55.592Z,16.63
2019-03-27T17:33:00.528Z,14.23
2019-03-27T17:38:11.020Z,13.88
2019-03-27T17:43:16.713Z,14.60
2019-03-27T17:48:25.803Z,13.23
2019-03-27T17:53:34.098Z,10.48
2019-03-27T17:58:42.389Z,10.00
2019-03-27T18:03:50.763Z,12.21
2019-03-27T18:08:59.161Z,9.80
2019-03-27T18:14:07.591Z,10.01
2019-03-27T18:19:16.147Z,10.33
2019-03-27T18:24:24.506Z,10.38
2019-03-27T18:29:32.815Z,10.90
2019-03-27T18:34:40.966Z,11.86
2019-03-27T18:39:49.650Z,11.51
2019-03-27T18:44:57.986Z,12.62
2019-03-27T18:50:06.435Z,9.77
2019-03-27T18:55:25.699Z,11.33
2019-03-27T19:00:22.678Z,11.72
2019-03-27T19:05:30.890Z,11.26
2019-03-27T19:10:39.434Z,11.24
2019-03-27T19:15:47.686Z,11.01
2019-03-27T19:20:55.926Z,13.80
2019-03-27T19:26:04.460Z,12.23
2019-03-27T19:31:12.698Z,12.67
2019-03-27T19:36:20.909Z,12.52
2019-03-27T19:41:29.145Z,13.69
2019-03-27T19:46:37.825Z,12.51
2019-03-27T19:51:46.255Z,14.52
2019-03-27T19:56:54.569Z,13.65
2019-03-27T20:02:03.173Z,14.14
2019-03-27T20:07:03.701Z,14.07
2019-03-27T20:12:12.023Z,12.84
2019-03-27T20:17:20.321Z,15.08
2019-03-27T20:23:14.990Z,15.72
2019-03-27T20:27:41.250Z,15.38
2019-03-27T20:32:32.162Z,18.21
2019-03-27T20:37:40.424Z,18.57
2019-03-27T20:42:51.850Z,18.43
2019-03-27T20:47:57.592Z,17.42
2019-03-27T20:53:05.714Z,17.34
2019-03-27T20:58:14.281Z,18.71
2019-03-27T21:03:22.670Z,19.68
2019-03-27T21:08:31.003Z,20.30
2019-03-27T21:13:41.292Z,20.09
2019-03-27T21:18:47.291Z,20.01
2019-03-27T21:23:55.560Z,17.44
2019-03-27T21:29:03.914Z,18.70
2019-03-27T21:34:12.141Z,19.28
2019-03-27T21:39:20.358Z,18.97
2019-03-27T21:44:28.718Z,21.09
2019-03-27T21:49:37.030Z,20.52
2019-03-27T21:54:45.614Z,17.72
2019-03-27T21:59:54.128Z,20.21
2019-03-27T22:05:02.198Z,18.56
2019-03-27T22:10:10.589Z,19.60
2019-03-27T22:15:18.736Z,18.17
2019-03-27T22:20:27.272Z,21.13
2019-03-27T22:25:36.524Z,20.52
2019-03-27T22:30:43.414Z,20.27
2019-03-27T22:35:51.630Z,20.87
2019-03-27T22:40:59.758Z,19.16
2019-03-27T22:46:07.974Z,20.20
2019-03-27T22:51:16.536Z,18.33
2019-03-27T22:56:24.810Z,19.00
2019-03-27T23:01:34.309Z,19.86
2019-03-27T23:06:42.532Z,17.30
2019-03-27T23:11:50.874Z,17.48
2019-03-27T23:16:59.278Z,20.12
2019-03-27T23:22:07.663Z,18.96
2019-03-27T23:27:15.898Z,19.51
2019-03-27T23:32:24.146Z,20.32
2019-03-27T23:37:32.374Z,19.73
2019-03-27T23:42:42.218Z,18.08
2019-03-27T23:47:40.583Z,18.53
2019-03-27T23:52:48.817Z,18.65
2019-03-27T23:57:56.990Z,17.28
